Time;durP1;ratioP1;P1;durP2;ratioP2;P2;SDS_P1;SDS_P2;PMS_P1;PMS_P2;Temp;Humidity;BMP_temperature;BMP_pressure;BME280_temperature;BME280_humidity;BME280_pressure;Samples;Min_cycle;Max_cycle;Signal;HPM_P1;HPM_P2
2023/12/19 00:01:09;;;;;;;29.63;16.58;;;;;;;2.65;88.83;100269.75;5092242;28;20119;-48
2023/12/19 00:03:34;;;;;;;28.80;19.00;;;;;;;3.57;89.50;100257.78;5092281;28;20115;-48
2023/12/19 00:06:00;;;;;;;29.80;19.08;;;;;;;4.32;88.16;100256.34;5092141;28;20046;-48
2023/12/19 00:08:26;;;;;;;31.23;19.58;;;;;;;4.71;85.07;100244.53;5092361;28;20511;-49
2023/12/19 00:10:52;;;;;;;35.13;25.05;;;;;;;4.95;82.33;100233.91;5093413;28;20028;-48
2023/12/19 00:13:17;;;;;;;31.88;21.95;;;;;;;4.67;79.29;100227.53;5093010;28;20501;-48
2023/12/19 00:15:43;;;;;;;27.17;18.00;;;;;;;4.29;77.46;100222.81;5093279;28;20059;-48
2023/12/19 00:18:09;;;;;;;26.15;18.70;;;;;;;3.91;78.19;100226.63;5092002;28;20387;-48
2023/12/19 00:20:35;;;;;;;22.40;15.82;;;;;;;4.13;80.16;100223.19;5093175;28;20059;-48
2023/12/19 00:23:00;;;;;;;25.00;16.95;;;;;;;4.62;80.64;100221.03;5091867;28;20585;-49
2023/12/19 00:25:27;;;;;;;24.92;16.65;;;;;;;4.94;79.33;100210.63;5093382;28;20020;-49
2023/12/19 00:27:53;;;;;;;29.55;15.93;;;;;;;4.86;77.25;100208.63;5093130;28;20103;-48
2023/12/19 00:30:19;;;;;;;23.25;15.98;;;;;;;4.34;75.33;100200.69;5091764;28;20388;-49
2023/12/19 00:32:44;;;;;;;34.45;26.85;;;;;;;3.96;76.56;100188.97;5092975;28;20585;-48
2023/12/19 00:35:11;;;;;;;23.55;15.93;;;;;;;3.61;75.46;100189.09;5091605;28;20034;-48
2023/12/19 00:37:37;;;;;;;24.10;15.48;;;;;;;3.25;75.86;100184.97;5093157;28;20063;-49
2023/12/19 00:40:04;;;;;;;22.88;14.63;;;;;;;2.99;76.77;100190.31;5092796;28;20056;-49
2023/12/19 00:42:30;;;;;;;23.10;15.88;;;;;;;2.79;78.21;100181.44;5091325;28;20038;-48
2023/12/19 00:44:56;;;;;;;26.95;18.48;;;;;;;2.70;78.69;100176.94;5092689;28;20028;-48
2023/12/19 00:47:21;;;;;;;21.45;15.40;;;;;;;2.83;80.09;100174.25;5092705;28;20024;-48
2023/12/19 00:49:47;;;;;;;23.85;17.25;;;;;;;2.97;80.16;100176.66;5092683;28;20416;-48
2023/12/19 00:52:12;;;;;;;27.42;17.70;;;;;;;2.80;79.68;100165.78;5092654;28;20470;-48
2023/12/19 00:54:38;;;;;;;27.98;15.00;;;;;;;2.71;80.50;100161.25;5091209;28;20024;-48
2023/12/19 00:57:04;;;;;;;26.27;17.50;;;;;;;2.83;81.00;100156.94;5092484;28;20039;-48
2023/12/19 00:59:30;;;;;;;24.48;17.63;;;;;;;2.63;81.64;100157.59;5091233;28;20111;-48
2023/12/19 01:01:56;;;;;;;26.15;16.52;;;;;;;2.58;83.29;100156.16;5091117;28;20159;-49
2023/12/19 01:04:22;;;;;;;25.77;18.80;;;;;;;3.00;85.64;100156.50;5091104;28;20501;-48
2023/12/19 01:06:47;;;;;;;26.80;17.42;;;;;;;3.47;86.16;100150.41;5092386;28;20115;-48
2023/12/19 01:09:13;;;;;;;24.02;16.80;;;;;;;3.53;85.56;100145.56;5092355;28;20027;-48
2023/12/19 01:11:39;;;;;;;31.48;22.27;;;;;;;3.39;85.84;100146.63;5092369;28;20369;-50
2023/12/19 01:14:05;;;;;;;32.00;22.80;;;;;;;3.13;85.95;100146.03;5092254;28;20035;-48
2023/12/19 01:16:31;;;;;;;34.50;28.00;;;;;;;3.43;89.00;100151.59;5092220;28;20496;-48
2023/12/19 01:18:57;;;;;;;34.03;25.05;;;;;;;3.93;89.36;100152.03;5090885;28;20023;-49
2023/12/19 01:21:22;;;;;;;32.40;22.73;;;;;;;3.66;86.44;100155.00;5090845;28;20497;-48
2023/12/19 01:23:48;;;;;;;34.35;25.77;;;;;;;3.27;86.22;100154.53;5092320;28;20020;-48
2023/12/19 01:26:14;;;;;;;34.58;24.50;;;;;;;3.16;86.86;100152.78;5092132;28;20439;-48
2023/12/19 01:28:40;;;;;;;37.67;25.45;;;;;;;3.01;86.97;100154.72;5092306;28;20024;-48
2023/12/19 01:31:06;;;;;;;31.50;23.58;;;;;;;2.95;87.81;100153.41;5073841;28;20027;-49
2023/12/19 01:33:31;;;;;;;32.00;25.27;;;;;;;3.12;88.41;100162.53;5091993;28;20024;-48
2023/12/19 01:35:57;;;;;;;31.42;21.48;;;;;;;3.31;87.94;100159.38;5090611;28;20028;-48
2023/12/19 01:38:23;;;;;;;27.70;19.48;;;;;;;3.15;87.09;100157.09;5091947;28;20024;-48
2023/12/19 01:40:49;;;;;;;28.30;22.38;;;;;;;2.96;86.02;100155.09;5091853;28;20027;-49
2023/12/19 01:43:23;;;;;;;27.00;21.60;;;;;;;2.75;86.27;100156.69;5090577;28;20036;-49
2023/12/19 01:45:52;;;;;;;31.95;20.02;;;;;;;2.55;86.29;100148.59;5091954;28;20028;-48
2023/12/19 01:48:20;;;;;;;24.17;17.52;;;;;;;2.37;86.73;100144.75;5091830;28;20032;-48
2023/12/19 01:50:47;;;;;;;24.63;17.48;;;;;;;2.26;86.97;100139.56;5090479;28;20028;-49
2023/12/19 01:53:13;;;;;;;26.05;17.98;;;;;;;2.14;87.18;100139.47;5093345;28;20114;-48
2023/12/19 01:55:40;;;;;;;25.65;19.08;;;;;;;2.11;87.64;100136.28;5094776;28;20462;-49
2023/12/19 01:58:07;;;;;;;25.88;18.38;;;;;;;2.09;87.81;100138.97;5096071;28;20020;-48
2023/12/19 02:00:35;;;;;;;31.33;18.83;;;;;;;2.05;87.72;100134.13;5095986;28;20513;-48
2023/12/19 02:03:02;;;;;;;28.17;20.63;;;;;;;1.98;88.29;100139.75;5094571;28;20595;-49
2023/12/19 02:05:28;;;;;;;25.88;17.17;;;;;;;2.31;90.31;100137.44;5094551;28;20078;-49
2023/12/19 02:07:54;;;;;;;26.42;18.25;;;;;;;3.03;90.99;100133.88;5095764;28;20024;-49
2023/12/19 02:10:20;;;;;;;25.85;17.85;;;;;;;3.53;89.67;100136.97;5094509;28;20024;-49
2023/12/19 02:12:46;;;;;;;22.40;16.05;;;;;;;3.75;88.82;100134.34;5095419;28;20044;-49
2023/12/19 02:15:13;;;;;;;27.48;19.02;;;;;;;4.06;88.91;100131.09;5095654;28;20126;-48
2023/12/19 02:17:42;;;;;;;64.75;52.15;;;;;;;4.24;89.27;100136.56;5094316;28;20570;-48
2023/12/19 02:20:08;;;;;;;40.40;27.90;;;;;;;4.10;89.22;100128.09;5095561;28;20024;-47
2023/12/19 02:22:34;;;;;;;30.02;23.17;;;;;;;3.75;87.69;100123.13;5094235;28;20748;-47
2023/12/19 02:25:00;;;;;;;37.85;26.23;;;;;;;3.32;88.07;100129.91;5094177;28;20127;-47
2023/12/19 02:27:26;;;;;;;36.40;22.73;;;;;;;3.17;90.31;100125.88;5095438;28;20142;-48
2023/12/19 02:29:51;;;;;;;56.42;45.35;;;;;;;3.39;92.17;100120.69;5095366;28;20031;-47
2023/12/19 02:32:17;;;;;;;36.55;26.63;;;;;;;3.64;93.73;100123.13;5094003;28;20028;-48
2023/12/19 02:34:43;;;;;;;97.15;79.60;;;;;;;3.90;94.59;100114.09;5093835;28;20055;-48
2023/12/19 02:37:09;;;;;;;34.45;23.15;;;;;;;3.80;92.37;100126.19;5093913;28;20047;-48
2023/12/19 02:39:34;;;;;;;31.60;24.92;;;;;;;3.55;92.76;100124.69;5093944;28;20053;-48
2023/12/19 02:42:00;;;;;;;28.33;20.10;;;;;;;3.50;93.50;100129.41;5093841;28;20520;-48
2023/12/19 02:44:26;;;;;;;35.10;27.50;;;;;;;3.24;93.35;100121.88;5093815;28;20036;-48
2023/12/19 02:46:51;;;;;;;26.15;20.85;;;;;;;3.20;93.54;100123.06;5093744;28;20012;-48
2023/12/19 02:49:17;;;;;;;30.77;21.92;;;;;;;2.90;92.10;100128.81;5094992;28;20031;-48
2023/12/19 02:51:43;;;;;;;28.92;21.05;;;;;;;2.71;92.25;100129.34;5093657;28;20284;-48
2023/12/19 02:54:09;;;;;;;33.58;23.40;;;;;;;2.55;92.80;100127.03;5093593;28;20422;-48
2023/12/19 02:56:35;;;;;;;31.63;23.50;;;;;;;2.42;93.35;100134.91;5094835;28;20386;-48
2023/12/19 02:59:03;;;;;;;28.67;20.50;;;;;;;2.29;93.18;100132.34;5093605;28;20036;-48
2023/12/19 03:01:29;;;;;;;33.03;21.38;;;;;;;2.14;93.33;100123.94;5093491;28;20024;-48
2023/12/19 03:03:54;;;;;;;31.10;21.10;;;;;;;1.93;92.96;100126.31;5094650;28;20097;-48
2023/12/19 03:06:20;;;;;;;29.05;19.92;;;;;;;1.79;93.33;100127.28;5094631;28;20020;-48
2023/12/19 03:08:47;;;;;;;33.03;20.35;;;;;;;1.69;93.87;100120.28;5093330;28;20119;-48
2023/12/19 03:11:14;;;;;;;29.02;20.00;;;;;;;1.61;94.24;100118.25;5094562;28;20103;-48
2023/12/19 03:13:39;;;;;;;33.38;25.55;;;;;;;1.59;94.94;100122.69;5094194;28;20054;-48
2023/12/19 03:16:06;;;;;;;33.30;23.17;;;;;;;1.58;95.22;100121.84;5093157;28;20024;-48
2023/12/19 03:18:31;;;;;;;30.25;20.92;;;;;;;1.73;96.55;100126.88;5094472;28;20134;-48
2023/12/19 03:20:58;;;;;;;28.08;19.42;;;;;;;1.96;96.97;100118.31;5094396;28;20056;-48
2023/12/19 03:23:24;;;;;;;30.42;21.35;;;;;;;1.91;95.60;100111.81;5094472;28;20025;-48
2023/12/19 03:25:50;;;;;;;32.30;22.10;;;;;;;1.81;95.26;100116.81;5092958;28;20448;-48
2023/12/19 03:28:16;;;;;;;29.13;20.35;;;;;;;1.73;95.55;100109.63;5092947;28;20081;-48
2023/12/19 03:30:42;;;;;;;28.90;20.85;;;;;;;1.67;95.58;100104.88;5092922;28;20051;-48
2023/12/19 03:33:09;;;;;;;28.88;19.52;;;;;;;1.62;95.79;100111.28;5094095;28;20080;-48
2023/12/19 03:35:34;;;;;;;32.40;23.80;;;;;;;1.57;95.84;100109.88;5094124;28;20020;-48
2023/12/19 03:38:00;;;;;;;27.67;18.98;;;;;;;1.53;95.84;100111.00;5094118;28;20398;-48
2023/12/19 03:40:26;;;;;;;31.92;18.42;;;;;;;1.60;96.55;100108.81;5092682;28;20081;-48
2023/12/19 03:42:52;;;;;;;30.92;20.65;;;;;;;2.07;98.74;100120.13;5094019;28;20020;-48
2023/12/19 03:45:18;;;;;;;27.95;17.30;;;;;;;2.80;100.00;100118.28;5094020;28;20161;-48
2023/12/19 03:47:43;;;;;;;25.33;18.33;;;;;;;3.31;98.60;100104.06;5092620;28;20020;-48
2023/12/19 03:50:10;;;;;;;23.50;16.92;;;;;;;3.17;95.12;100094.75;5093927;28;20017;-48
2023/12/19 03:52:35;;;;;;;26.02;16.45;;;;;;;2.81;92.64;100096.59;5092701;28;20031;-48
2023/12/19 03:55:02;;;;;;;22.67;15.55;;;;;;;2.62;93.16;100093.72;5092424;28;20024;-48
2023/12/19 03:57:28;;;;;;;22.65;15.13;;;;;;;2.43;93.17;100107.22;5093777;28;20028;-48
2023/12/19 03:59:54;;;;;;;22.63;17.55;;;;;;;2.28;93.56;100102.22;5092365;28;20031;-48
2023/12/19 04:02:19;;;;;;;29.23;21.58;;;;;;;2.58;96.49;100101.72;5093635;28;20058;-48
2023/12/19 04:04:45;;;;;;;25.23;17.73;;;;;;;2.95;96.41;100092.97;5093608;28;20489;-48
2023/12/19 04:07:11;;;;;;;25.65;17.95;;;;;;;2.95;95.09;100096.38;5093550;28;20020;-48
2023/12/19 04:09:37;;;;;;;24.75;17.63;;;;;;;2.82;94.23;100098.25;5092147;28;20042;-49
2023/12/19 04:12:03;;;;;;;25.25;18.48;;;;;;;2.58;94.38;100093.16;5093220;28;20044;-48
2023/12/19 04:14:30;;;;;;;24.95;19.05;;;;;;;2.48;94.99;100093.00;5092076;28;20024;-48
2023/12/19 04:16:56;;;;;;;26.08;20.08;;;;;;;2.43;94.80;100079.53;5092752;28;20032;-48
2023/12/19 04:19:22;;;;;;;29.80;19.83;;;;;;;2.23;94.22;100081.00;5093278;28;20024;-48
2023/12/19 04:21:48;;;;;;;24.85;17.88;;;;;;;2.16;94.84;100082.41;5093247;28;20415;-48
2023/12/19 04:24:14;;;;;;;25.67;18.77;;;;;;;2.33;95.57;100079.38;5093222;28;20390;-48
2023/12/19 04:26:42;;;;;;;24.92;18.00;;;;;;;2.45;95.72;100084.63;5091799;28;20028;-48
2023/12/19 04:29:10;;;;;;;23.85;15.85;;;;;;;2.63;96.08;100074.66;5093072;28;20024;-49
2023/12/19 04:31:36;;;;;;;26.52;17.17;;;;;;;2.72;94.85;100076.56;5093270;28;20432;-48
2023/12/19 04:34:02;;;;;;;23.67;15.55;;;;;;;2.47;92.38;100062.00;5091647;28;20012;-49
2023/12/19 04:36:30;;;;;;;23.48;15.73;;;;;;;2.09;90.89;100058.69;5091590;28;20409;-48
2023/12/19 04:38:56;;;;;;;21.63;15.65;;;;;;;1.84;91.18;100051.06;5091541;28;20061;-48
2023/12/19 04:41:22;;;;;;;23.80;15.90;;;;;;;1.84;92.70;100058.84;5091544;28;20020;-48
2023/12/19 04:43:47;;;;;;;22.50;16.95;;;;;;;2.02;93.73;100054.91;5091446;28;20520;-48
2023/12/19 04:46:13;;;;;;;22.58;15.13;;;;;;;1.84;93.04;100048.50;5092805;28;20077;-48
2023/12/19 04:48:42;;;;;;;23.73;15.50;;;;;;;1.40;92.69;100053.28;5092689;28;20103;-48
2023/12/19 04:51:17;;;;;;;22.33;16.55;;;;;;;1.07;93.31;100054.72;5092559;28;20039;-48
2023/12/19 04:53:43;;;;;;;28.70;19.02;;;;;;;0.97;94.58;100049.34;5092597;28;20107;-48
2023/12/19 04:56:11;;;;;;;27.45;15.77;;;;;;;1.32;97.63;100053.81;5092574;28;20099;-48
2023/12/19 04:58:36;;;;;;;30.13;14.75;;;;;;;2.28;100.00;100053.00;5092777;28;20024;-48
2023/12/19 05:01:02;;;;;;;22.65;15.60;;;;;;;3.08;100.00;100041.81;5091182;28;20528;-49
2023/12/19 05:03:28;;;;;;;28.65;19.13;;;;;;;3.58;98.79;100052.59;5091182;28;20393;-48
2023/12/19 05:05:54;;;;;;;24.23;16.63;;;;;;;3.90;97.35;100049.19;5092372;28;20508;-48
2023/12/19 05:08:19;;;;;;;27.48;19.17;;;;;;;4.03;95.85;100046.44;5092401;28;20020;-48
2023/12/19 05:10:45;;;;;;;33.00;18.30;;;;;;;3.85;92.58;100050.53;5092287;28;20028;-48
2023/12/19 05:13:11;;;;;;;34.65;19.23;;;;;;;3.75;92.02;100053.03;5091851;28;20036;-48
2023/12/19 05:15:36;;;;;;;22.38;17.45;;;;;;;3.73;90.65;100042.75;5090959;28;20436;-48
2023/12/19 05:18:02;;;;;;;34.17;23.23;;;;;;;3.30;88.02;100055.69;5092297;28;20024;-48
2023/12/19 05:20:28;;;;;;;30.23;20.02;;;;;;;3.03;88.71;100056.91;5092160;28;20524;-49
2023/12/19 05:22:54;;;;;;;23.30;17.98;;;;;;;2.97;89.52;100055.59;5092190;28;20023;-48
2023/12/19 05:25:19;;;;;;;28.58;20.48;;;;;;;2.66;88.51;100058.88;5090841;28;20509;-49
2023/12/19 05:27:45;;;;;;;38.95;25.92;;;;;;;2.29;89.43;100069.38;5091234;28;20555;-48
2023/12/19 05:30:12;;;;;;;22.25;18.17;;;;;;;2.11;89.18;100077.56;5092074;28;20035;-48
2023/12/19 05:32:39;;;;;;;32.17;19.13;;;;;;;1.92;88.79;100079.81;5092044;28;20024;-48
2023/12/19 05:35:05;;;;;;;37.03;18.88;;;;;;;1.74;89.06;100094.91;5092157;28;20027;-48
2023/12/19 05:37:31;;;;;;;37.08;17.98;;;;;;;1.72;88.91;100092.41;5092037;28;20533;-48
2023/12/19 05:39:57;;;;;;;36.92;17.52;;;;;;;1.60;88.60;100091.53;5091945;28;20108;-48
2023/12/19 05:42:24;;;;;;;29.05;17.35;;;;;;;1.79;89.74;100090.22;5090598;28;20028;-48
2023/12/19 05:44:50;;;;;;;21.20;17.00;;;;;;;1.82;88.66;100084.84;5091923;28;20032;-48
2023/12/19 05:47:15;;;;;;;25.67;18.25;;;;;;;1.82;88.84;100090.00;5090584;28;20371;-48
2023/12/19 05:49:41;;;;;;;30.02;18.55;;;;;;;1.91;88.12;100084.19;5090508;28;20035;-48
2023/12/19 05:52:07;;;;;;;70.93;19.15;;;;;;;1.65;86.72;100083.44;5091866;28;20016;-49
2023/12/19 05:54:33;;;;;;;28.27;19.27;;;;;;;1.35;86.69;100086.44;5091731;28;20120;-48
2023/12/19 05:56:59;;;;;;;24.13;17.45;;;;;;;1.36;88.34;100088.88;5091757;28;20023;-49
2023/12/19 05:59:25;;;;;;;83.85;20.42;;;;;;;1.69;89.23;100079.72;5091843;28;20028;-49
2023/12/19 06:01:50;;;;;;;71.63;19.85;;;;;;;1.66;88.02;100074.75;5090378;28;20521;-48
2023/12/19 06:04:16;;;;;;;32.97;20.70;;;;;;;1.35;86.58;100076.91;5091716;28;20032;-48
2023/12/19 06:06:44;;;;;;;26.67;18.83;;;;;;;1.05;86.35;100085.00;5091681;28;20022;-48
2023/12/19 06:09:12;;;;;;;33.53;17.65;;;;;;;1.14;87.92;100096.47;5091706;28;20524;-46
2023/12/19 06:11:39;;;;;;;31.70;25.55;;;;;;;1.07;87.66;100090.91;5091330;28;20046;-47
2023/12/19 06:14:06;;;;;;;39.53;19.80;;;;;;;1.13;87.55;100092.25;5091600;28;20028;-46
2023/12/19 06:16:32;;;;;;;31.23;18.33;;;;;;;1.03;87.20;100096.38;5090318;28;20017;-46
2023/12/19 06:18:58;;;;;;;28.98;16.42;;;;;;;0.87;87.21;100106.94;5091599;28;20386;-46
2023/12/19 06:21:25;;;;;;;31.52;18.90;;;;;;;0.78;87.70;100104.00;5091589;28;20016;-46
2023/12/19 06:23:51;;;;;;;62.03;18.77;;;;;;;0.78;87.90;100104.00;5090238;28;20075;-46
2023/12/19 06:26:16;;;;;;;36.10;17.90;;;;;;;0.66;87.70;100096.25;5090208;28;20430;-46
2023/12/19 06:28:42;;;;;;;32.85;18.13;;;;;;;0.49;87.52;100093.03;5091730;28;20101;-46
2023/12/19 06:31:08;;;;;;;27.48;19.23;;;;;;;0.36;87.45;100092.19;5091468;28;20048;-46
2023/12/19 06:33:36;;;;;;;25.73;17.42;;;;;;;0.27;87.50;100085.88;5090050;28;20099;-46
2023/12/19 06:36:05;;;;;;;33.97;21.65;;;;;;;0.18;87.29;100076.97;5091638;28;20398;-46
2023/12/19 06:38:31;;;;;;;25.42;18.10;;;;;;;0.06;87.86;100074.34;5091430;28;20028;-46
2023/12/19 06:40:57;;;;;;;31.30;18.15;;;;;;;0.11;88.98;100074.88;5095095;28;20097;-46
2023/12/19 06:43:23;;;;;;;29.13;16.48;;;;;;;0.56;91.04;100073.66;5095234;28;20099;-46
2023/12/19 06:45:49;;;;;;;27.45;17.83;;;;;;;1.39;92.70;100068.00;5095048;28;20426;-46
2023/12/19 06:48:15;;;;;;;27.70;16.45;;;;;;;2.04;91.63;100066.00;5095022;28;20039;-46
2023/12/19 06:50:40;;;;;;;22.67;16.00;;;;;;;2.54;90.56;100069.22;5094941;28;20068;-46
2023/12/19 06:53:06;;;;;;;29.52;18.25;;;;;;;2.67;88.94;100068.28;5094857;28;20424;-46
2023/12/19 06:55:32;;;;;;;32.17;16.98;;;;;;;2.88;88.15;100069.28;5094884;28;20016;-46
2023/12/19 06:57:57;;;;;;;35.72;17.02;;;;;;;3.16;87.09;100061.97;5093536;28;20031;-46
2023/12/19 07:00:23;;;;;;;32.83;18.45;;;;;;;3.06;85.42;100055.81;5093474;28;20027;-46
2023/12/19 07:02:49;;;;;;;37.33;18.08;;;;;;;3.09;83.77;100059.00;5093481;28;20067;-46
2023/12/19 07:05:15;;;;;;;42.45;18.17;;;;;;;2.90;82.67;100056.19;5093542;28;20101;-46
2023/12/19 07:07:40;;;;;;;33.95;17.08;;;;;;;2.92;83.05;100054.31;5094700;28;20065;-45
2023/12/19 07:10:06;;;;;;;29.70;16.33;;;;;;;2.93;82.06;100054.19;5094641;28;20042;-46
2023/12/19 07:12:32;;;;;;;29.80;17.38;;;;;;;2.93;82.00;100050.75;5094302;28;20413;-46
2023/12/19 07:14:59;;;;;;;32.28;19.58;;;;;;;3.00;81.95;100037.22;5094446;28;20024;-46
2023/12/19 07:17:25;;;;;;;30.13;18.73;;;;;;;2.97;80.74;100041.81;5094446;28;20024;-46
2023/12/19 07:19:50;;;;;;;30.38;17.77;;;;;;;3.13;80.79;100033.66;5094358;28;20024;-46
2023/12/19 07:22:16;;;;;;;22.90;15.43;;;;;;;3.35;80.11;100036.22;5094401;28;20032;-46
2023/12/19 07:24:41;;;;;;;29.85;22.17;;;;;;;3.35;78.66;100044.00;5094272;28;20383;-46
2023/12/19 07:27:08;;;;;;;26.48;19.10;;;;;;;2.88;77.83;100048.53;5092975;28;20028;-46
2023/12/19 07:29:37;;;;;;;28.13;19.63;;;;;;;2.41;78.06;100045.16;5094332;28;20028;-46
2023/12/19 07:32:03;;;;;;;31.92;19.67;;;;;;;2.08;78.48;100043.28;5094513;28;20501;-46
2023/12/19 07:34:28;;;;;;;36.60;21.77;;;;;;;2.34;79.83;100031.03;5094385;28;20111;-46
2023/12/19 07:36:54;;;;;;;51.72;39.35;;;;;;;2.87;78.95;100035.69;5094079;28;20024;-47
2023/12/19 07:39:20;;;;;;;96.22;75.32;;;;;;;3.13;77.57;100033.66;5092763;28;20027;-46
2023/12/19 07:41:46;;;;;;;46.65;24.65;;;;;;;3.11;76.51;100032.97;5094326;28;20489;-49
2023/12/19 07:44:14;;;;;;;61.75;23.00;;;;;;;2.84;76.44;100023.78;5094016;28;20416;-49
2023/12/19 07:46:42;;;;;;;93.85;46.28;;;;;;;2.90;77.57;100033.69;5093979;28;20024;-49
2023/12/19 07:49:09;;;;;;;56.35;21.08;;;;;;;3.24;76.95;100036.25;5093949;28;20027;-49
2023/12/19 07:51:35;;;;;;;41.83;20.15;;;;;;;3.00;74.83;100044.19;5091747;28;20472;-49
2023/12/19 07:54:01;;;;;;;47.88;19.88;;;;;;;2.87;76.21;100036.50;5092412;28;20050;-48
2023/12/19 07:56:26;;;;;;;30.70;21.00;;;;;;;3.15;76.01;100039.56;5092442;28;20043;-49
2023/12/19 07:58:52;;;;;;;28.00;17.63;;;;;;;3.32;75.00;100036.50;5093660;28;20058;-49
2023/12/19 08:01:18;;;;;;;45.50;20.88;;;;;;;3.17;73.84;100035.91;5093677;28;20022;-49
2023/12/19 08:03:44;;;;;;;58.25;20.02;;;;;;;2.85;73.94;100038.38;5093678;28;20024;-49
2023/12/19 08:06:11;;;;;;;30.73;19.83;;;;;;;2.64;74.97;100037.44;5092267;28;20028;-48
2023/12/19 08:08:37;;;;;;;45.83;19.13;;;;;;;2.73;75.54;100039.31;5093526;28;20040;-49
2023/12/19 08:11:03;;;;;;;49.63;19.63;;;;;;;2.77;75.55;100044.16;5093434;28;20028;-48
2023/12/19 08:13:29;;;;;;;40.22;19.98;;;;;;;2.98;76.95;100046.88;5091914;28;20081;-49
2023/12/19 08:15:55;;;;;;;55.05;21.00;;;;;;;3.26;77.72;100025.75;5092032;28;20718;-49
2023/12/19 08:18:21;;;;;;;37.58;19.73;;;;;;;3.45;77.28;100043.31;5092047;28;20032;-48
2023/12/19 08:20:47;;;;;;;44.08;20.75;;;;;;;3.42;75.75;100033.16;5092040;28;20024;-48
2023/12/19 08:23:13;;;;;;;36.03;19.90;;;;;;;3.40;76.25;100035.88;5091982;28;20115;-48
2023/12/19 08:25:41;;;;;;;35.83;22.33;;;;;;;3.42;75.70;100028.81;5091883;28;20118;-48
2023/12/19 08:28:08;;;;;;;33.50;22.55;;;;;;;3.38;75.15;100024.78;5093206;28;20517;-49
2023/12/19 08:30:34;;;;;;;45.38;29.10;;;;;;;3.38;74.70;100019.59;5093037;28;20618;-48
2023/12/19 08:33:00;;;;;;;42.33;24.23;;;;;;;3.46;75.21;100019.00;5091797;28;20050;-48
2023/12/19 08:35:26;;;;;;;61.65;23.65;;;;;;;3.54;74.43;100016.59;5091617;28;20401;-49
2023/12/19 08:37:52;;;;;;;45.10;21.77;;;;;;;3.71;74.35;100023.06;5092930;28;20027;-48
2023/12/19 08:40:21;;;;;;;47.40;22.08;;;;;;;3.91;74.21;100021.47;5092898;28;20024;-48
2023/12/19 08:42:48;;;;;;;41.30;20.77;;;;;;;4.31;73.47;100018.19;5092896;28;20028;-48
2023/12/19 08:45:19;;;;;;;32.67;22.25;;;;;;;4.58;73.29;100030.66;5092917;28;20037;-48
2023/12/19 08:47:46;;;;;;;42.75;19.83;;;;;;;4.85;72.19;100027.53;5093105;28;20440;-49
2023/12/19 08:50:13;;;;;;;44.40;22.38;;;;;;;4.85;71.66;100037.09;5091483;28;20529;-49
2023/12/19 08:52:41;;;;;;;59.00;19.98;;;;;;;4.80;70.57;100034.88;5092753;28;20020;-49
2023/12/19 08:55:10;;;;;;;43.92;20.48;;;;;;;4.20;70.17;100045.91;5092530;28;20019;-49
2023/12/19 08:57:41;;;;;;;35.13;18.20;;;;;;;4.02;71.96;100039.56;5091276;28;20028;-49
2023/12/19 09:00:12;;;;;;;33.92;18.63;;;;;;;3.89;71.73;100044.13;5091291;28;20027;-48
2023/12/19 09:02:42;;;;;;;100.50;24.30;;;;;;;3.61;71.17;100051.53;5092450;28;20053;-48
2023/12/19 09:05:10;;;;;;;57.35;20.17;;;;;;;3.05;71.67;100043.81;5092717;28;20031;-49
2023/12/19 09:07:36;;;;;;;40.67;20.85;;;;;;;3.09;74.13;100042.63;5092724;28;20627;-48
2023/12/19 09:10:02;;;;;;;229.07;26.10;;;;;;;3.38;73.71;100045.53;5092412;28;20024;-48
2023/12/19 09:12:27;;;;;;;38.63;20.90;;;;;;;3.36;73.89;100040.50;5092171;28;20541;-49
2023/12/19 09:14:53;;;;;;;37.20;22.65;;;;;;;3.34;73.95;100039.78;5090931;28;20039;-49
2023/12/19 09:17:19;;;;;;;33.67;22.63;;;;;;;3.67;75.02;100029.44;5092251;28;20460;-49
2023/12/19 09:19:45;;;;;;;37.60;20.50;;;;;;;4.06;74.58;100028.00;5092192;28;20103;-49
2023/12/19 09:22:10;;;;;;;36.90;19.70;;;;;;;4.39;73.28;100023.59;5092141;28;20020;-48
2023/12/19 09:24:36;;;;;;;33.33;20.73;;;;;;;4.75;73.75;100019.69;5090862;28;20090;-49
2023/12/19 09:27:02;;;;;;;32.08;21.08;;;;;;;5.32;72.16;100019.19;5092158;28;20149;-48
2023/12/19 09:29:28;;;;;;;35.90;23.63;;;;;;;5.80;70.95;100015.84;5092127;28;20222;-49
2023/12/19 09:31:54;;;;;;;31.35;21.15;;;;;;;6.10;69.43;100008.88;5092058;28;20057;-49
2023/12/19 09:34:20;;;;;;;48.92;22.42;;;;;;;6.22;68.08;100019.94;5091987;28;20035;-49
2023/12/19 09:36:46;;;;;;;34.15;22.40;;;;;;;6.01;68.04;100015.72;5090642;28;20025;-49
2023/12/19 09:39:15;;;;;;;34.95;22.95;;;;;;;5.79;67.85;100002.00;5091989;28;20374;-49
2023/12/19 09:41:47;;;;;;;69.05;23.88;;;;;;;5.75;67.90;100007.59;5090616;28;20513;-49
2023/12/19 09:44:13;;;;;;;50.83;25.25;;;;;;;5.73;68.01;99997.31;5092258;28;20461;-49
2023/12/19 09:46:41;;;;;;;41.95;24.15;;;;;;;5.92;67.27;99993.91;5090576;28;20047;-49
2023/12/19 09:49:10;;;;;;;40.03;24.92;;;;;;;6.45;67.77;99987.41;5090583;28;20028;-49
2023/12/19 09:51:42;;;;;;;56.55;23.30;;;;;;;6.91;66.77;99983.09;5091872;28;20020;-49
2023/12/19 09:54:08;;;;;;;39.25;24.42;;;;;;;7.28;66.05;99978.78;5091822;28;20032;-49
2023/12/19 09:56:35;;;;;;;122.65;95.05;;;;;;;7.57;64.96;99976.00;5091813;28;20439;-49
2023/12/19 09:59:04;;;;;;;46.13;24.95;;;;;;;7.87;64.19;99976.56;5091803;28;20099;-49
2023/12/19 10:01:30;;;;;;;54.75;36.42;;;;;;;8.31;63.30;99971.34;5091722;28;20020;-49
2023/12/19 10:03:56;;;;;;;40.70;29.67;;;;;;;8.89;61.48;99975.91;5091774;28;20032;-49
2023/12/19 10:06:23;;;;;;;35.00;23.65;;;;;;;9.26;60.76;99969.50;5091733;28;20386;-49
2023/12/19 10:08:53;;;;;;;55.08;24.80;;;;;;;9.78;58.48;99976.31;5091627;28;20556;-49
2023/12/19 10:11:24;;;;;;;42.47;24.08;;;;;;;9.78;56.28;99966.66;5090555;28;20025;-50
2023/12/19 10:13:50;;;;;;;52.20;28.75;;;;;;;9.45;57.20;99954.47;5091995;28;20055;-49
2023/12/19 10:16:19;;;;;;;41.20;24.70;;;;;;;9.26;56.78;99953.00;5094376;28;20020;-49
2023/12/19 10:18:54;;;;;;;34.80;23.65;;;;;;;9.24;57.42;99947.91;5095655;28;20028;-49
2023/12/19 10:21:23;;;;;;;55.20;24.60;;;;;;;9.40;56.52;99945.31;5077437;28;20035;-49
2023/12/19 10:23:48;;;;;;;43.03;23.10;;;;;;;9.57;56.03;99940.09;5095596;28;20066;-49
2023/12/19 10:26:15;;;;;;;46.05;23.75;;;;;;;9.86;55.64;99937.00;5094148;28;20031;-49
2023/12/19 10:28:41;;;;;;;34.65;23.05;;;;;;;10.05;55.52;99932.38;5095382;28;20024;-49
2023/12/19 10:31:06;;;;;;;49.28;21.77;;;;;;;10.45;54.56;99935.94;5095468;28;20020;-50
2023/12/19 10:33:42;;;;;;;39.42;21.70;;;;;;;10.78;53.44;99929.59;5093967;28;20020;-50
2023/12/19 10:36:21;;;;;;;34.45;21.30;;;;;;;11.27;52.20;99930.28;5095535;28;20024;-50
2023/12/19 10:38:47;;;;;;;32.20;21.55;;;;;;;12.09;51.03;99930.53;5095207;28;20394;-50
2023/12/19 10:41:29;;;;;;;23.70;19.27;;;;;;;11.92;50.31;99919.31;5095276;28;20044;-49
2023/12/19 10:43:57;;;;;;;27.77;20.52;;;;;;;11.31;50.03;99935.06;5095185;28;20039;-49
2023/12/19 10:46:25;;;;;;;29.90;18.38;;;;;;;10.97;51.59;99924.91;5095171;28;20541;-50
2023/12/19 10:48:55;;;;;;;24.63;17.85;;;;;;;11.15;51.49;99909.69;5093802;28;20038;-49
2023/12/19 10:51:24;;;;;;;22.98;18.13;;;;;;;11.61;50.21;99919.41;5094016;28;20103;-49
2023/12/19 10:53:58;;;;;;;29.63;19.45;;;;;;;11.53;49.78;99904.50;5094897;28;20028;-50
2023/12/19 10:56:29;;;;;;;34.20;19.65;;;;;;;11.28;49.10;99897.78;5093783;28;20081;-50
2023/12/19 10:59:01;;;;;;;29.50;19.10;;;;;;;11.64;49.23;99881.41;5094930;28;20102;-49
2023/12/19 11:01:37;;;;;;;32.10;18.35;;;;;;;11.89;49.13;99888.13;5094773;28;20020;-50
2023/12/19 11:04:16;;;;;;;32.13;19.35;;;;;;;12.61;47.46;99885.84;5093659;28;20055;-49
2023/12/19 11:06:46;;;;;;;38.85;21.05;;;;;;;12.42;47.53;99887.25;5094980;28;20066;-49
2023/12/19 11:09:19;;;;;;;218.30;27.35;;;;;;;12.00;46.23;99878.97;5094691;28;20039;-50
2023/12/19 11:11:45;;;;;;;37.65;21.77;;;;;;;11.35;47.74;99883.78;5094387;28;20111;-51
2023/12/19 11:14:11;;;;;;;47.67;24.48;;;;;;;11.38;48.11;99879.97;5094651;28;20119;-49